createdAt,value
2023-01-07T00:00:07.103Z,0.05
2023-01-07T00:16:42.006Z,0.11
2023-01-07T00:19:58.186Z,0.12
2023-01-07T00:23:08.974Z,0.15
2023-01-07T00:33:00.238Z,0.31
2023-01-07T00:36:07.007Z,0.33
2023-01-07T00:39:16.161Z,0.33
2023-01-07T00:42:13.192Z,0.36
2023-01-07T00:44:50.331Z,0.41
2023-01-07T00:47:30.284Z,0.46
2023-01-07T00:50:04.169Z,0.49
2023-01-07T00:52:38.855Z,0.52
2023-01-07T00:55:25.042Z,0.57
2023-01-07T00:58:12.763Z,0.64
2023-01-07T01:00:53.607Z,0.70
2023-01-07T01:03:32.736Z,0.75
2023-01-07T01:06:19.275Z,0.80
2023-01-07T01:09:01.168Z,0.86
2023-01-07T01:11:47.850Z,0.90
2023-01-07T01:14:36.346Z,0.91
2023-01-07T01:17:28.030Z,0.94
2023-01-07T01:20:22.251Z,0.96
2023-01-07T01:23:07.460Z,0.96
2023-01-07T01:26:12.195Z,0.97
2023-01-07T01:29:02.174Z,0.96
2023-01-07T01:31:53.025Z,0.98
2023-01-07T01:35:01.970Z,1.00
2023-01-07T01:37:58.129Z,1.06
2023-01-07T01:40:47.614Z,1.14
2023-01-07T01:43:46.901Z,1.13
2023-01-07T01:46:47.137Z,1.13
2023-01-07T01:49:51.556Z,1.16
2023-01-07T01:53:12.029Z,1.19
2023-01-07T01:56:35.606Z,1.22
2023-01-07T01:59:42.641Z,1.25
2023-01-07T02:02:47.223Z,1.27
2023-01-07T02:05:45.889Z,1.30
2023-01-07T02:08:49.874Z,1.34
2023-01-07T02:12:04.049Z,1.39
2023-01-07T02:15:38.325Z,1.40
2023-01-07T02:18:37.672Z,1.44
2023-01-07T02:22:14.795Z,1.45
2023-01-07T02:25:30.994Z,1.43
2023-01-07T02:28:42.894Z,1.45
2023-01-07T02:31:30.150Z,1.48
2023-01-07T02:34:44.330Z,1.49
2023-01-07T02:37:54.468Z,1.48
2023-01-07T02:41:02.646Z,1.48
2023-01-07T02:44:14.363Z,1.49
2023-01-07T02:47:31.012Z,1.55
2023-01-07T02:50:23.037Z,1.57
2023-01-07T02:53:15.020Z,1.57
2023-01-07T02:56:16.939Z,1.56
2023-01-07T02:59:24.814Z,1.58
2023-01-07T03:02:44.605Z,1.62
2023-01-07T03:06:03.431Z,1.68
2023-01-07T03:09:15.864Z,1.72
2023-01-07T03:12:38.294Z,1.71
2023-01-07T03:15:42.824Z,1.68
2023-01-07T03:18:50.319Z,1.70
2023-01-07T03:21:45.385Z,1.67
2023-01-07T03:24:41.230Z,1.71
2023-01-07T03:27:46.235Z,1.73
2023-01-07T03:30:45.706Z,1.71
2023-01-07T03:33:45.086Z,1.65
2023-01-07T03:37:02.425Z,1.59
2023-01-07T03:39:59.676Z,1.55
2023-01-07T03:42:57.855Z,1.55
2023-01-07T03:45:50.374Z,1.54
2023-01-07T03:48:40.390Z,1.53
2023-01-07T03:51:36.930Z,1.52
2023-01-07T03:54:26.342Z,1.52
2023-01-07T03:57:17.623Z,1.54
2023-01-07T04:00:14.777Z,1.56
2023-01-07T04:03:01.729Z,1.59
2023-01-07T04:06:00.790Z,1.60
2023-01-07T04:08:54.689Z,1.60
2023-01-07T04:11:55.186Z,1.59
2023-01-07T04:14:59.235Z,1.59
2023-01-07T04:17:56.970Z,1.58
2023-01-07T04:21:04.989Z,1.58
2023-01-07T04:24:08.612Z,1.60
2023-01-07T04:27:32.181Z,1.61
2023-01-07T04:30:39.054Z,1.62
2023-01-07T04:33:39.835Z,1.64
2023-01-07T04:36:30.938Z,1.68
2023-01-07T04:39:25.880Z,1.70
2023-01-07T04:42:22.873Z,1.72
2023-01-07T04:45:18.561Z,1.75
2023-01-07T04:48:11.407Z,1.79
2023-01-07T04:51:03.593Z,1.84
2023-01-07T04:53:55.207Z,1.85
2023-01-07T04:56:55.298Z,1.84
2023-01-07T04:59:46.223Z,1.79
2023-01-07T05:02:39.480Z,1.73
2023-01-07T05:05:28.383Z,1.70
2023-01-07T05:08:19.588Z,1.70
2023-01-07T05:11:10.398Z,1.71
2023-01-07T05:14:12.262Z,1.73
2023-01-07T05:17:15.027Z,1.74
2023-01-07T05:20:23.114Z,1.72
2023-01-07T05:23:40.043Z,1.69
2023-01-07T05:26:26.347Z,1.64
2023-01-07T05:29:01.328Z,1.64
2023-01-07T05:31:47.114Z,1.64
2023-01-07T05:34:33.158Z,1.65
2023-01-07T05:37:12.752Z,1.65
2023-01-07T05:39:58.079Z,1.67
2023-01-07T05:42:44.764Z,1.72
2023-01-07T05:45:41.042Z,1.74
2023-01-07T05:48:33.703Z,1.77
2023-01-07T05:51:26.209Z,1.80
2023-01-07T05:54:24.787Z,1.81
2023-01-07T05:57:33.555Z,1.84
2023-01-07T06:00:31.621Z,1.87
2023-01-07T06:03:30.140Z,1.90
2023-01-07T06:06:21.236Z,1.95
2023-01-07T06:09:46.232Z,1.96
2023-01-07T06:12:40.245Z,1.94
2023-01-07T06:45:55.231Z,2.67
2023-01-07T07:12:49.936Z,2.46
2023-01-07T07:20:59.284Z,2.58
2023-01-07T07:29:04.768Z,2.65
2023-01-07T07:44:00.110Z,2.77
2023-01-07T07:51:22.514Z,2.85
2023-01-07T07:55:51.593Z,2.88
2023-01-07T08:02:19.736Z,2.91
2023-01-07T08:08:49.354Z,3.03
2023-01-07T08:11:55.943Z,3.04
2023-01-07T08:14:52.682Z,3.04
2023-01-07T08:18:26.526Z,3.04
2023-01-07T08:25:19.729Z,3.13
2023-01-07T08:28:48.624Z,3.16
2023-01-07T09:54:01.009Z,4.08
2023-01-07T09:56:55.460Z,4.11
2023-01-07T11:02:30.412Z,5.21
2023-01-07T11:05:03.864Z,5.19
2023-01-07T11:53:16.072Z,6.05
2023-01-07T12:00:48.892Z,6.20
2023-01-07T12:03:22.643Z,6.26
2023-01-07T12:11:20.565Z,6.54
2023-01-07T14:39:55.381Z,4.12
2023-01-07T14:42:45.804Z,4.10
2023-01-07T14:45:40.916Z,4.06
2023-01-07T14:48:18.934Z,4.03
2023-01-07T14:51:38.383Z,4.00
2023-01-07T14:54:24.956Z,3.99
2023-01-07T14:57:40.839Z,3.99
2023-01-07T15:01:04.738Z,3.98
2023-01-07T15:04:43.535Z,3.95
2023-01-07T15:11:57.636Z,4.03
2023-01-07T15:15:33.947Z,4.00
2023-01-07T18:28:48.296Z,4.45
2023-01-07T18:43:19.972Z,4.44
2023-01-07T18:47:45.462Z,4.43
2023-01-07T18:50:01.721Z,4.38
2023-01-07T21:47:53.924Z,3.60
